Terminal Aerodrome Forecast
Issued by NWS

Home | Current Version | Previous Version | Text Only | Print | Product List | Glossary On
Versions: 1 2 3 4 5 6 7 8 9 10 11 12 13
815
FTUS46 KSGX 061736
TAFSNA
TAF
KSNA 061736Z 0618/0718 21006KT P6SM SKC WS020/06020KT
     FM062000 05010G20KT P6SM SKC
     FM070100 VRB05KT P6SM SKC WS010/06025KT=

USA.gov is the U.S. government's official web portal to all federal, state and local government web resources and services.